Time;durP1;ratioP1;P1;durP2;ratioP2;P2;SDS_P1;SDS_P2;PMS_P1;PMS_P2;Temp;Humidity;BMP_temperature;BMP_pressure;BME280_temperature;BME280_humidity;BME280_pressure;Samples;Min_cycle;Max_cycle;Signal;HPM_P1;HPM_P2
2023/04/18 00:01:27;;;;;;;;;;;10.30;78.40;;;-151.14;100.00;62537.16;4989087;28;19928;-83
2023/04/18 00:03:56;;;;;;;;;;;10.30;78.40;;;-151.14;100.00;62537.16;4997462;28;19927;-83
2023/04/18 00:06:24;;;;;;;;;;;10.30;78.30;;;-151.14;100.00;62537.16;4993806;28;19921;-83
2023/04/18 00:08:52;;;;;;;;;;;10.30;78.50;;;-151.14;100.00;62537.16;4994382;28;19928;-83
2023/04/18 00:11:21;;;;;;;;;;;10.30;78.30;;;-151.14;100.00;62537.16;4978062;28;19922;-83
2023/04/18 00:13:49;;;;;;;;;;;10.30;77.90;;;-151.14;100.00;62537.16;5011583;28;19932;-83
2023/04/18 00:16:18;;;;;;;;;;;10.30;77.80;;;-151.14;100.00;62537.16;4977495;28;19928;-82
2023/04/18 00:18:47;;;;;;;;;;;10.30;77.90;;;-151.14;100.00;62537.16;4977956;28;20255;-83
2023/04/18 00:21:15;;;;;;;;;;;10.30;77.60;;;-151.14;100.00;62537.16;5011505;28;20213;-83
2023/04/18 00:23:44;;;;;;;;;;;10.30;77.60;;;-151.14;100.00;62537.16;4977824;28;19936;-83
2023/04/18 00:26:13;;;;;;;;;;;10.30;77.30;;;-151.14;100.00;62537.16;4993428;28;19928;-83
2023/04/18 00:28:42;;;;;;;;;;;10.30;77.60;;;-151.14;100.00;62537.16;4977817;28;20121;-83
2023/04/18 00:31:11;;;;;;;;;;;10.30;77.60;;;-151.14;100.00;62537.16;4994097;28;19922;-83
2023/04/18 00:33:41;;;;;;;;;;;10.30;77.30;;;-151.14;100.00;62537.16;4993835;28;19921;-83
2023/04/18 00:36:09;;;;;;;;;;;10.30;77.30;;;-151.14;100.00;62537.16;4977168;28;19936;-83
2023/04/18 00:38:37;;;;;;;;;;;10.30;77.20;;;-151.14;100.00;62537.16;4977500;28;20218;-83
2023/04/18 00:41:05;;;;;;;;;;;10.30;77.20;;;-151.14;100.00;62537.16;4993929;28;19927;-83
2023/04/18 00:43:33;;;;;;;;;;;10.30;77.20;;;-151.14;100.00;62537.16;4993906;28;19922;-83
2023/04/18 00:46:02;;;;;;;;;;;10.30;77.20;;;-151.14;100.00;62537.16;4993224;28;19944;-83
2023/04/18 00:48:30;;;;;;;;;;;10.30;77.50;;;-151.14;100.00;62537.16;4977722;28;19922;-83
2023/04/18 00:51:00;;;;;;;;;;;10.30;77.40;;;-151.14;100.00;62537.16;4997135;28;19927;-83
2023/04/18 00:53:28;;;;;;;;;;;10.30;77.20;;;-151.14;100.00;62537.16;4977849;28;19928;-83
2023/04/18 00:55:56;;;;;;;;;;;10.30;77.10;;;-151.14;100.00;62537.16;4961016;28;20113;-83
2023/04/18 00:58:25;;;;;;;;;;;10.30;77.10;;;-151.14;100.00;62537.16;4961375;28;20142;-83
2023/04/18 01:00:53;;;;;;;;;;;10.30;77.20;;;-151.14;100.00;62537.16;4961755;28;20095;-83
2023/04/18 01:03:23;;;;;;;;;;;10.30;77.20;;;-151.14;100.00;62537.16;4977386;28;19921;-83
2023/04/18 01:05:51;;;;;;;;;;;10.30;77.10;;;-151.14;100.00;62537.16;4977089;28;19922;-83
2023/04/18 01:08:20;;;;;;;;;;;10.30;77.50;;;-151.14;100.00;62537.16;4993516;28;20153;-83
2023/04/18 01:10:49;;;;;;;;;;;10.30;77.40;;;-151.14;100.00;62537.16;4977534;28;19926;-83
2023/04/18 01:13:18;;;;;;;;;;;10.30;77.40;;;-151.14;100.00;62537.16;4977727;28;19921;-83
2023/04/18 01:15:47;;;;;;;;;;;10.30;77.40;;;-151.14;100.00;62537.16;4960841;28;19922;-83
2023/04/18 01:18:16;;;;;;;;;;;10.30;77.20;;;-151.14;100.00;62537.16;4961349;28;19922;-83
2023/04/18 01:20:46;;;;;;;;;;;10.30;77.00;;;-151.14;100.00;62537.16;4961365;28;20217;-83
2023/04/18 01:23:14;;;;;;;;;;;10.20;76.90;;;-151.14;100.00;62537.16;4960984;28;19928;-83
2023/04/18 01:25:43;;;;;;;;;;;10.30;77.20;;;-151.14;100.00;62537.16;4960736;28;20098;-83
2023/04/18 01:28:12;;;;;;;;;;;10.30;77.90;;;-151.14;100.00;62537.16;4977138;28;19921;-83
2023/04/18 01:30:40;;;;;;;;;;;10.30;78.40;;;-151.14;100.00;62537.16;4961252;28;19928;-83
2023/04/18 01:33:08;;;;;;;;;;;10.20;77.90;;;-151.14;100.00;62537.16;4977164;28;20044;-83
2023/04/18 01:35:36;;;;;;;;;;;10.20;77.40;;;-151.14;100.00;62537.16;4960399;28;19922;-83
2023/04/18 01:38:04;;;;;;;;;;;10.20;77.10;;;-151.14;100.00;62537.16;4976949;28;19940;-83
2023/04/18 01:40:32;;;;;;;;;;;10.20;78.20;;;-151.14;100.00;62537.16;4993106;28;19928;-83
2023/04/18 01:43:02;;;;;;;;;;;10.20;78.50;;;-151.14;100.00;62537.16;4977151;28;20235;-83
2023/04/18 01:45:30;;;;;;;;;;;10.20;78.00;;;-151.14;100.00;62537.16;4960224;28;19922;-83
2023/04/18 01:47:58;;;;;;;;;;;10.20;78.70;;;-151.14;100.00;62537.16;4969131;28;20116;-83
2023/04/18 01:50:27;;;;;;;;;;;10.20;78.60;;;-151.14;100.00;62537.16;4979907;28;19951;-83
2023/04/18 01:52:55;;;;;;;;;;;10.20;78.20;;;-151.14;100.00;62537.16;4996420;28;19921;-83
2023/04/18 01:55:23;;;;;;;;;;;10.20;77.90;;;-151.14;100.00;62537.16;5013017;28;19928;-82
2023/04/18 01:57:51;;;;;;;;;;;10.20;77.70;;;-151.14;100.00;62537.16;4996272;28;19925;-82
2023/04/18 02:00:22;;;;;;;;;;;10.20;77.90;;;-151.14;100.00;62537.16;4995555;28;19922;-83
2023/04/18 02:02:50;;;;;;;;;;;10.20;78.30;;;-151.14;100.00;62537.16;4996088;28;19922;-83
2023/04/18 02:05:18;;;;;;;;;;;10.20;79.20;;;-151.14;100.00;62537.16;4979273;28;19922;-83
2023/04/18 02:07:48;;;;;;;;;;;10.20;79.70;;;-151.14;100.00;62537.16;4979936;28;19921;-83
2023/04/18 02:10:16;;;;;;;;;;;10.20;79.60;;;-151.14;100.00;62537.16;4979698;28;19928;-83
2023/04/18 02:12:44;;;;;;;;;;;10.20;79.40;;;-151.14;100.00;62537.16;4979898;28;20117;-82
2023/04/18 02:15:12;;;;;;;;;;;10.20;79.30;;;-151.14;100.00;62537.16;4979103;28;19922;-83
2023/04/18 02:17:41;;;;;;;;;;;10.20;79.70;;;-151.14;100.00;62537.16;5013303;28;19921;-82
2023/04/18 02:20:10;;;;;;;;;;;10.20;79.60;;;-151.14;100.00;62537.16;4995694;28;19922;-83
2023/04/18 02:22:38;;;;;;;;;;;10.20;79.60;;;-151.14;100.00;62537.16;4979078;28;19921;-83
2023/04/18 02:25:07;;;;;;;;;;;10.20;79.80;;;-151.14;100.00;62537.16;4995246;28;20311;-83
2023/04/18 02:27:35;;;;;;;;;;;10.20;79.60;;;-151.14;100.00;62537.16;4979543;28;20213;-83
2023/04/18 02:30:03;;;;;;;;;;;10.20;79.50;;;-151.14;100.00;62537.16;4995553;28;19921;-83
2023/04/18 02:32:34;;;;;;;;;;;10.20;79.50;;;-151.14;100.00;62537.16;4979504;28;19936;-82
2023/04/18 02:35:04;;;;;;;;;;;10.20;79.60;;;-151.14;100.00;62537.16;4995181;28;19921;-83
2023/04/18 02:37:33;;;;;;;;;;;10.20;79.70;;;-151.14;100.00;62537.16;4995799;28;19928;-83
2023/04/18 02:40:01;;;;;;;;;;;10.20;79.60;;;-151.14;100.00;62537.16;4979294;28;19928;-83
2023/04/18 02:42:33;;;;;;;;;;;10.20;79.80;;;-151.14;100.00;62537.16;4995800;28;19928;-83
2023/04/18 02:45:02;;;;;;;;;;;10.20;79.70;;;-151.14;100.00;62537.16;4994757;28;19921;-83
2023/04/18 02:47:31;;;;;;;;;;;10.20;79.80;;;-151.14;100.00;62537.16;4979577;28;19922;-83
2023/04/18 02:49:59;;;;;;;;;;;10.20;80.00;;;-151.14;100.00;62537.16;4995304;28;19921;-83
2023/04/18 02:52:30;;;;;;;;;;;10.20;80.00;;;-151.14;100.00;62537.16;4998306;23;19912;-86
2023/04/18 02:54:58;;;;;;;;;;;10.20;79.90;;;-151.14;100.00;62537.16;4958993;28;19922;-86
2023/04/18 02:57:31;;;;;;;;;;;10.20;80.00;;;-151.14;100.00;62537.16;4959047;28;19952;-87
2023/04/18 03:00:20;;;;;;;;;;;10.20;80.10;;;-151.14;100.00;62537.16;4975469;28;19922;-87
2023/04/18 03:02:57;;;;;;;;;;;10.20;80.00;;;-151.14;100.00;62537.16;4982508;28;19943;-87
2023/04/18 03:05:38;;;;;;;;;;;10.20;79.70;;;-151.14;100.00;62537.16;4978183;28;19940;-87
2023/04/18 03:08:08;;;;;;;;;;;10.20;79.50;;;-151.14;100.00;62537.16;4978755;28;19922;-87
2023/04/18 03:10:39;;;;;;;;;;;10.10;79.50;;;-151.14;100.00;62537.16;4995320;28;19922;-88
2023/04/18 03:13:07;;;;;;;;;;;10.10;79.40;;;-151.14;100.00;62537.16;4978040;28;19929;-87
2023/04/18 03:15:35;;;;;;;;;;;10.20;79.30;;;-151.14;100.00;62537.16;4978225;28;19922;-86
2023/04/18 03:18:04;;;;;;;;;;;10.20;79.30;;;-151.14;100.00;62537.16;4978889;28;19928;-85
2023/04/18 03:20:36;;;;;;;;;;;10.20;79.30;;;-151.14;100.00;62537.16;4994877;28;19922;-86
2023/04/18 03:23:04;;;;;;;;;;;10.20;79.20;;;-151.14;100.00;62537.16;4978725;28;19922;-87
2023/04/18 03:25:33;;;;;;;;;;;10.20;79.30;;;-151.14;100.00;62537.16;4978124;28;19922;-86
2023/04/18 03:28:02;;;;;;;;;;;10.20;79.30;;;-151.14;100.00;62537.16;4994906;28;20205;-86
2023/04/18 03:30:31;;;;;;;;;;;10.20;79.20;;;-151.14;100.00;62537.16;4978548;28;19922;-86
2023/04/18 03:33:01;;;;;;;;;;;10.20;79.10;;;-151.14;100.00;62537.16;4978615;28;20117;-86
2023/04/18 03:35:30;;;;;;;;;;;10.20;79.20;;;-151.14;100.00;62537.16;5010270;28;20189;-87
2023/04/18 03:37:58;;;;;;;;;;;10.10;79.20;;;-151.14;100.00;62537.16;4978760;28;19928;-87
2023/04/18 03:40:30;;;;;;;;;;;10.10;78.80;;;-151.14;100.00;62537.16;4994814;28;19928;-88
2023/04/18 03:43:05;;;;;;;;;;;10.10;78.80;;;-151.14;100.00;62537.16;4994604;28;19921;-88
2023/04/18 03:45:33;;;;;;;;;;;10.20;79.20;;;-151.14;100.00;62537.16;4994117;28;19928;-87
2023/04/18 03:48:01;;;;;;;;;;;10.20;79.20;;;-151.14;100.00;62537.16;4994746;28;19921;-88
2023/04/18 03:50:30;;;;;;;;;;;10.20;79.30;;;-151.14;100.00;62537.16;4978278;28;19921;-88
2023/04/18 03:52:59;;;;;;;;;;;10.20;79.60;;;-151.14;100.00;62537.16;4978306;28;19925;-87
2023/04/18 03:55:30;;;;;;;;;;;10.20;80.10;;;-151.14;100.00;62537.16;4977812;28;20204;-87
2023/04/18 03:57:59;;;;;;;;;;;10.20;79.80;;;-151.14;100.00;62537.16;4978447;28;19921;-87
2023/04/18 04:00:31;;;;;;;;;;;10.20;79.40;;;-151.14;100.00;62537.16;4978141;28;19921;-88
2023/04/18 04:03:05;;;;;;;;;;;10.20;79.60;;;-151.14;100.00;62537.16;4975203;28;19928;-86
2023/04/18 04:05:33;;;;;;;;;;;10.20;79.40;;;-151.14;100.00;62537.16;4974278;28;19936;-86
2023/04/18 04:08:01;;;;;;;;;;;10.20;78.90;;;-151.14;100.00;62537.16;4958883;28;19922;-86
2023/04/18 04:10:30;;;;;;;;;;;10.20;79.00;;;-151.14;100.00;62537.16;4974854;28;19922;-87
2023/04/18 04:12:59;;;;;;;;;;;10.20;78.90;;;-151.14;100.00;62537.16;4974871;28;19928;-87
2023/04/18 04:15:27;;;;;;;;;;;10.20;78.50;;;-151.14;100.00;62537.16;4974278;28;19928;-87
2023/04/18 04:18:06;;;;;;;;;;;10.20;78.50;;;-151.14;100.00;62537.16;4974807;28;19928;-88
2023/04/18 04:20:37;;;;;;;;;;;10.20;78.50;;;-151.14;100.00;62537.16;4974777;28;19928;-88
2023/04/18 04:23:27;;;;;;;;;;;10.20;78.80;;;-151.14;100.00;62537.16;4992547;28;20117;-87
2023/04/18 04:25:57;;;;;;;;;;;10.20;79.30;;;-151.14;100.00;62537.16;4977761;28;19928;-87
2023/04/18 04:28:40;;;;;;;;;;;10.20;79.70;;;-151.14;100.00;62537.16;4978171;28;19950;-85
2023/04/18 04:31:09;;;;;;;;;;;10.20;79.70;;;-151.14;100.00;62537.16;4978030;28;19922;-87
2023/04/18 04:33:39;;;;;;;;;;;10.20;78.70;;;-151.14;100.00;62537.16;4962067;28;20213;-87
2023/04/18 04:36:17;;;;;;;;;;;10.20;79.00;;;-151.14;100.00;62537.16;4977459;28;19936;-87
2023/04/18 04:38:46;;;;;;;;;;;10.20;79.30;;;-151.14;100.00;62537.16;4962015;28;20095;-87
2023/04/18 04:41:14;;;;;;;;;;;10.20;78.70;;;-151.14;100.00;62537.16;4961876;28;20209;-87
2023/04/18 04:43:43;;;;;;;;;;;10.20;78.60;;;-151.14;100.00;62537.16;4994395;28;19932;-86
2023/04/18 04:46:14;;;;;;;;;;;10.10;79.00;;;-151.14;100.00;62537.16;4961252;28;20093;-87
2023/04/18 04:48:45;;;;;;;;;;;10.20;78.80;;;-151.14;100.00;62537.16;4978027;28;19921;-88
2023/04/18 04:51:13;;;;;;;;;;;10.10;77.90;;;-151.14;100.00;62537.16;4993869;28;19929;-86
2023/04/18 04:53:41;;;;;;;;;;;10.10;77.60;;;-151.14;100.00;62537.16;4990118;28;20109;-87
2023/04/18 04:56:09;;;;;;;;;;;10.10;78.00;;;-151.14;100.00;62537.16;4996653;28;20116;-87
2023/04/18 04:58:37;;;;;;;;;;;10.10;77.80;;;-151.14;100.00;62537.16;4997402;28;20144;-87
2023/04/18 05:01:09;;;;;;;;;;;10.10;77.30;;;-151.14;100.00;62537.16;4996873;28;19925;-87
2023/04/18 05:03:38;;;;;;;;;;;10.10;78.40;;;-151.14;100.00;62537.16;5013232;28;19928;-87
2023/04/18 05:06:08;;;;;;;;;;;10.10;77.20;;;-151.14;100.00;62537.16;4980335;28;20230;-87
2023/04/18 05:08:36;;;;;;;;;;;10.10;77.20;;;-151.14;100.00;62537.16;4997098;28;19927;-87
2023/04/18 05:11:04;;;;;;;;;;;10.10;77.10;;;-151.14;100.00;62537.16;5013234;28;19927;-87
2023/04/18 05:13:32;;;;;;;;;;;10.10;77.20;;;-151.14;100.00;62537.16;4996763;28;19922;-88
2023/04/18 05:16:00;;;;;;;;;;;10.10;77.10;;;-151.14;100.00;62537.16;5012684;28;19921;-86
2023/04/18 05:18:28;;;;;;;;;;;10.10;77.50;;;-151.14;100.00;62537.16;4996848;28;19922;-87
2023/04/18 05:20:56;;;;;;;;;;;10.10;77.40;;;-151.14;100.00;62537.16;4996683;28;20227;-87
2023/04/18 05:23:26;;;;;;;;;;;10.10;77.20;;;-151.14;100.00;62537.16;4996651;28;19921;-87
2023/04/18 05:25:54;;;;;;;;;;;10.10;77.60;;;-151.14;100.00;62537.16;4996046;28;20374;-86
2023/04/18 05:28:22;;;;;;;;;;;10.10;77.30;;;-151.14;100.00;62537.16;4996765;28;19921;-87
2023/04/18 05:30:50;;;;;;;;;;;10.10;77.60;;;-151.14;100.00;62537.16;4996827;28;19926;-87
2023/04/18 05:33:19;;;;;;;;;;;10.10;77.20;;;-151.14;100.00;62537.16;4980218;28;20209;-87
2023/04/18 05:35:47;;;;;;;;;;;10.10;77.20;;;-151.14;100.00;62537.16;4995364;28;19928;-87
2023/04/18 05:38:15;;;;;;;;;;;10.10;77.00;;;-151.14;100.00;62537.16;4980243;28;19922;-87
2023/04/18 05:40:44;;;;;;;;;;;10.10;77.10;;;-151.14;100.00;62537.16;4980469;28;19921;-87
2023/04/18 05:43:12;;;;;;;;;;;10.10;77.60;;;-151.14;100.00;62537.16;4980327;28;19922;-87
2023/04/18 05:45:40;;;;;;;;;;;10.10;77.20;;;-151.14;100.00;62537.16;4995848;28;20144;-87
2023/04/18 05:48:09;;;;;;;;;;;10.10;77.40;;;-151.14;100.00;62537.16;5012606;28;19921;-86
2023/04/18 05:50:37;;;;;;;;;;;10.10;77.70;;;-151.14;100.00;62537.16;4980152;28;19929;-86
2023/04/18 05:53:05;;;;;;;;;;;10.10;78.70;;;-151.14;100.00;62537.16;4992797;28;19922;-87
2023/04/18 05:55:33;;;;;;;;;;;10.10;78.80;;;-151.14;100.00;62537.16;4992501;28;19922;-88
2023/04/18 05:58:02;;;;;;;;;;;10.10;78.80;;;-151.14;100.00;62537.16;4992877;28;20233;-87
2023/04/18 06:00:30;;;;;;;;;;;10.10;78.20;;;-151.14;100.00;62537.16;4976652;28;19921;-86
2023/04/18 06:02:59;;;;;;;;;;;10.10;78.40;;;-151.14;100.00;62537.16;4976601;28;19928;-87
2023/04/18 06:05:27;;;;;;;;;;;10.10;78.20;;;-151.14;100.00;62537.16;4976195;28;20227;-87
2023/04/18 06:07:55;;;;;;;;;;;10.10;77.90;;;-151.14;100.00;62537.16;4992810;28;19922;-87
2023/04/18 06:10:23;;;;;;;;;;;10.10;77.30;;;-151.14;100.00;62537.16;4992924;28;19928;-86
2023/04/18 06:12:51;;;;;;;;;;;10.10;76.90;;;-151.14;100.00;62537.16;4976228;28;19926;-87
2023/04/18 06:15:20;;;;;;;;;;;10.10;76.90;;;-151.14;100.00;62537.16;4959892;28;19921;-88
2023/04/18 06:17:48;;;;;;;;;;;10.10;76.70;;;-151.14;100.00;62537.16;4976429;28;20227;-87
2023/04/18 06:20:16;;;;;;;;;;;10.10;76.80;;;-151.14;100.00;62537.16;4993976;28;19922;-87
2023/04/18 06:22:44;;;;;;;;;;;10.10;76.70;;;-151.14;100.00;62537.16;4992331;28;19928;-87
2023/04/18 06:25:12;;;;;;;;;;;10.10;76.60;;;-151.14;100.00;62537.16;4975878;28;19921;-87
2023/04/18 06:27:41;;;;;;;;;;;10.10;76.40;;;-151.14;100.00;62537.16;4976341;28;19922;-86
2023/04/18 06:30:09;;;;;;;;;;;10.10;76.40;;;-151.14;100.00;62537.16;4976547;28;19922;-87
2023/04/18 06:32:39;;;;;;;;;;;10.10;76.60;;;-151.14;100.00;62537.16;4976147;28;19922;-87
2023/04/18 06:35:07;;;;;;;;;;;10.10;76.90;;;-151.14;100.00;62537.16;4975785;28;19921;-87
2023/04/18 06:37:35;;;;;;;;;;;10.10;76.60;;;-151.14;100.00;62537.16;4992326;28;19921;-87
2023/04/18 06:40:04;;;;;;;;;;;10.10;76.50;;;-151.14;100.00;62537.16;4976386;28;19921;-86
2023/04/18 06:42:32;;;;;;;;;;;10.10;76.40;;;-151.14;100.00;62537.16;4975960;28;19922;-87
2023/04/18 06:45:02;;;;;;;;;;;10.10;76.50;;;-151.14;100.00;62537.16;4991748;28;19928;-87
2023/04/18 06:47:30;;;;;;;;;;;10.10;76.40;;;-151.14;100.00;62537.16;4990952;28;20120;-87
2023/04/18 06:49:59;;;;;;;;;;;10.10;76.30;;;-151.14;100.00;62537.16;4992325;28;19922;-86
2023/04/18 06:52:27;;;;;;;;;;;10.10;76.40;;;-151.14;100.00;62537.16;4994375;28;20113;-86
2023/04/18 06:54:55;;;;;;;;;;;10.10;76.30;;;-151.14;100.00;62537.16;5011338;28;19921;-86
2023/04/18 06:57:23;;;;;;;;;;;10.10;76.50;;;-151.14;100.00;62537.16;4995219;28;19922;-86
2023/04/18 06:59:51;;;;;;;;;;;10.20;76.40;;;-151.14;100.00;62537.16;4995381;28;20113;-87
2023/04/18 07:02:19;;;;;;;;;;;10.20;76.60;;;-151.14;100.00;62537.16;4995177;28;19921;-87
2023/04/18 07:04:48;;;;;;;;;;;10.20;76.40;;;-151.14;100.00;62537.16;4994621;28;20116;-87
2023/04/18 07:07:17;;;;;;;;;;;10.20;76.90;;;-151.14;100.00;62537.16;4994776;28;19922;-86
2023/04/18 07:09:45;;;;;;;;;;;10.20;76.30;;;-151.14;100.00;62537.16;4978993;28;19922;-87
2023/04/18 07:12:13;;;;;;;;;;;10.20;76.70;;;-151.14;100.00;62537.16;5012501;28;19922;-87
2023/04/18 07:14:41;;;;;;;;;;;10.20;76.40;;;-151.14;100.00;62537.16;4994425;28;19921;-86
2023/04/18 07:17:09;;;;;;;;;;;10.20;76.50;;;-151.14;100.00;62537.16;4995170;28;19922;-86
2023/04/18 07:19:37;;;;;;;;;;;10.20;76.50;;;-151.14;100.00;62537.16;4995074;28;19922;-87
2023/04/18 07:22:05;;;;;;;;;;;10.20;76.60;;;-151.14;100.00;62537.16;4994944;28;19922;-87
2023/04/18 07:24:35;;;;;;;;;;;10.20;76.40;;;-151.14;100.00;62537.16;5010458;28;19921;-86
2023/04/18 07:27:03;;;;;;;;;;;10.20;76.10;;;-151.14;100.00;62537.16;4994905;28;19928;-87
2023/04/18 07:29:31;;;;;;;;;;;10.20;76.00;;;-151.14;100.00;62537.16;4995003;28;19944;-87
2023/04/18 07:31:59;;;;;;;;;;;10.20;75.80;;;-151.14;100.00;62537.16;5011338;28;19928;-87
2023/04/18 07:34:28;;;;;;;;;;;10.20;75.90;;;-151.14;100.00;62537.16;4994147;28;19925;-88
2023/04/18 07:36:57;;;;;;;;;;;10.20;76.00;;;-151.14;100.00;62537.16;5011009;28;19944;-86
2023/04/18 07:39:25;;;;;;;;;;;10.20;76.40;;;-151.14;100.00;62537.16;4994529;28;19921;-88
2023/04/18 07:41:54;;;;;;;;;;;10.20;75.90;;;-151.14;100.00;62537.16;4994564;28;19921;-87
2023/04/18 07:44:24;;;;;;;;;;;10.20;76.30;;;-151.14;100.00;62537.16;4993936;28;19940;-87
2023/04/18 07:46:53;;;;;;;;;;;10.20;76.70;;;-151.14;100.00;62537.16;4994593;28;19921;-87
2023/04/18 07:49:21;;;;;;;;;;;10.20;76.00;;;-151.14;100.00;62537.16;4994608;28;20221;-87
2023/04/18 07:51:49;;;;;;;;;;;10.20;76.80;;;-151.14;100.00;62537.16;4994600;28;19921;-87
2023/04/18 07:54:17;;;;;;;;;;;10.20;77.60;;;-151.14;100.00;62537.16;4990592;28;20121;-88
2023/04/18 07:56:45;;;;;;;;;;;10.20;76.90;;;-151.14;100.00;62537.16;4991399;28;19922;-87
2023/04/18 07:59:14;;;;;;;;;;;10.20;77.50;;;-151.14;100.00;62537.16;4974626;28;19928;-87
2023/04/18 08:01:42;;;;;;;;;;;10.20;78.50;;;-151.14;100.00;62537.16;4991294;28;20113;-86
2023/04/18 08:04:11;;;;;;;;;;;10.20;78.30;;;-151.14;100.00;62537.16;5006686;28;19922;-87
2023/04/18 08:06:39;;;;;;;;;;;10.20;77.90;;;-151.14;100.00;62537.16;4990919;28;19921;-87
2023/04/18 08:09:07;;;;;;;;;;;10.20;78.30;;;-151.14;100.00;62537.16;4992244;28;19922;-87
2023/04/18 08:11:36;;;;;;;;;;;10.20;78.40;;;-151.14;100.00;62537.16;4991175;28;19921;-87
2023/04/18 08:14:04;;;;;;;;;;;10.20;78.00;;;-151.14;100.00;62537.16;4990260;28;20206;-87
2023/04/18 08:16:33;;;;;;;;;;;10.20;78.60;;;-151.14;100.00;62537.16;4991042;28;19922;-87
2023/04/18 08:19:01;;;;;;;;;;;10.20;78.50;;;-151.14;100.00;62537.16;4990920;28;19922;-87
2023/04/18 08:21:29;;;;;;;;;;;10.20;78.90;;;-151.14;100.00;62537.16;5007157;28;19929;-87
2023/04/18 08:23:57;;;;;;;;;;;10.20;79.10;;;-151.14;100.00;62537.16;4990835;28;20231;-86
2023/04/18 08:26:26;;;;;;;;;;;10.20;78.90;;;-151.14;100.00;62537.16;5006961;28;19928;-86
2023/04/18 08:28:54;;;;;;;;;;;10.20;77.30;;;-151.14;100.00;62537.16;4990938;28;20131;-86
2023/04/18 08:31:22;;;;;;;;;;;10.20;78.20;;;-151.14;100.00;62537.16;4990885;28;19922;-88
2023/04/18 08:33:51;;;;;;;;;;;10.20;78.70;;;-151.14;100.00;62537.16;4990750;28;19928;-87
2023/04/18 08:36:20;;;;;;;;;;;10.20;79.00;;;-151.14;100.00;62537.16;4990265;28;19922;-87
2023/04/18 08:38:48;;;;;;;;;;;10.20;78.90;;;-151.14;100.00;62537.16;4991307;28;19928;-87
2023/04/18 08:41:16;;;;;;;;;;;10.20;79.00;;;-151.14;100.00;62537.16;5011349;28;19922;-87
2023/04/18 08:43:47;;;;;;;;;;;10.20;79.00;;;-151.14;100.00;62537.16;4993811;28;19922;-86
2023/04/18 08:46:15;;;;;;;;;;;10.20;78.90;;;-151.14;100.00;62537.16;5009645;28;19922;-86
2023/04/18 08:48:43;;;;;;;;;;;10.20;79.00;;;-151.14;100.00;62537.16;4993916;28;19944;-86
2023/04/18 08:51:13;;;;;;;;;;;10.20;79.00;;;-151.14;100.00;62537.16;5010086;28;19938;-87
2023/04/18 08:53:43;;;;;;;;;;;10.20;78.70;;;-151.14;100.00;62537.16;5020232;23;19929;-83
2023/04/18 08:56:13;;;;;;;;;;;10.20;79.00;;;-151.14;100.00;62537.16;4991016;28;19944;-83
2023/04/18 08:58:43;;;;;;;;;;;10.20;78.90;;;-151.14;100.00;62537.16;4974368;28;20125;-83
2023/04/18 09:01:12;;;;;;;;;;;10.20;78.60;;;-151.14;100.00;62537.16;4974327;28;20110;-83
2023/04/18 09:03:41;;;;;;;;;;;10.20;77.90;;;-151.14;100.00;62537.16;4974354;28;19928;-83
2023/04/18 09:06:15;;;;;;;;;;;10.20;77.70;;;-151.14;100.00;62537.16;4989859;28;20133;-83
2023/04/18 09:08:43;;;;;;;;;;;10.20;77.70;;;-151.14;100.00;62537.16;4974365;28;20121;-83
2023/04/18 09:11:22;;;;;;;;;;;10.20;77.40;;;-151.14;100.00;62537.16;4976558;28;19921;-83
2023/04/18 09:13:50;;;;;;;;;;;10.20;77.20;;;-151.14;100.00;62537.16;4993653;28;20212;-83
2023/04/18 09:16:19;;;;;;;;;;;10.30;77.90;;;-151.14;100.00;62537.16;4993153;28;19922;-83
2023/04/18 09:19:11;;;;;;;;;;;10.30;78.00;;;-151.14;100.00;62537.16;4993749;28;19926;-83
2023/04/18 09:21:43;;;;;;;;;;;10.30;78.20;;;-151.14;100.00;62537.16;4993562;28;19928;-83
2023/04/18 09:24:19;;;;;;;;;;;10.30;78.30;;;-151.14;100.00;62537.16;4976594;28;19929;-82
2023/04/18 09:26:49;;;;;;;;;;;10.30;78.20;;;-151.14;100.00;62537.16;4977327;28;19925;-83
2023/04/18 09:29:21;;;;;;;;;;;10.30;77.80;;;-151.14;100.00;62537.16;4977322;28;19922;-83
2023/04/18 09:32:01;;;;;;;;;;;10.30;78.40;;;-151.14;100.00;62537.16;4991938;28;19928;-83
2023/04/18 09:34:32;;;;;;;;;;;10.30;78.80;;;-151.14;100.00;62537.16;4992883;28;19928;-83
2023/04/18 09:37:09;;;;;;;;;;;10.30;77.90;;;-151.14;100.00;62537.16;4992723;28;19926;-82
2023/04/18 09:39:38;;;;;;;;;;;10.30;77.40;;;-151.14;100.00;62537.16;4994480;28;19922;-83
2023/04/18 09:42:06;;;;;;;;;;;10.30;78.50;;;-151.14;100.00;62537.16;5012533;28;19943;-83
2023/04/18 09:44:35;;;;;;;;;;;10.30;78.30;;;-151.14;100.00;62537.16;4995979;28;19928;-83
2023/04/18 09:47:03;;;;;;;;;;;10.30;78.00;;;-151.14;100.00;62537.16;5012942;28;20108;-83
2023/04/18 09:49:31;;;;;;;;;;;10.30;78.40;;;-151.14;100.00;62537.16;4996312;28;19927;-84
2023/04/18 09:52:01;;;;;;;;;;;10.30;79.20;;;-151.14;100.00;62537.16;4995987;28;20290;-84
2023/04/18 09:54:30;;;;;;;;;;;10.30;78.40;;;-151.14;100.00;62537.16;4995590;28;19922;-83
2023/04/18 09:56:59;;;;;;;;;;;10.30;78.40;;;-151.14;100.00;62537.16;5013705;28;19937;-83
2023/04/18 09:59:34;;;;;;;;;;;10.30;78.40;;;-151.14;100.00;62537.16;5012640;28;19921;-83
2023/04/18 10:02:02;;;;;;;;;;;10.30;78.40;;;-151.14;100.00;62537.16;5012542;28;19928;-83
2023/04/18 10:04:30;;;;;;;;;;;10.30;78.40;;;-151.14;100.00;62537.16;4995597;28;19925;-83
2023/04/18 10:06:59;;;;;;;;;;;10.40;78.80;;;-151.14;100.00;62537.16;5012324;28;20204;-84
2023/04/18 10:09:30;;;;;;;;;;;10.30;78.70;;;-151.14;100.00;62537.16;5012604;28;20092;-82
2023/04/18 10:12:00;;;;;;;;;;;10.40;78.80;;;-151.14;100.00;62537.16;5012171;28;20109;-83
2023/04/18 10:14:28;;;;;;;;;;;10.40;78.70;;;-151.14;100.00;62537.16;4995521;28;19927;-83
2023/04/18 10:16:57;;;;;;;;;;;10.40;78.70;;;-151.14;100.00;62537.16;4995783;28;19928;-83
2023/04/18 10:19:26;;;;;;;;;;;10.40;78.70;;;-151.14;100.00;62537.16;4996143;28;19921;-83
2023/04/18 10:21:54;;;;;;;;;;;10.40;78.80;;;-151.14;100.00;62537.16;5012938;28;19921;-83
2023/04/18 10:24:48;;;;;;;;;;;10.40;78.60;;;-151.14;100.00;62537.16;5012664;28;19928;-83
2023/04/18 10:27:17;;;;;;;;;;;10.40;78.60;;;-151.14;100.00;62537.16;5012088;28;19922;-83
2023/04/18 10:29:49;;;;;;;;;;;10.40;78.60;;;-151.14;100.00;62537.16;4995860;28;19928;-82
2023/04/18 10:32:17;;;;;;;;;;;10.40;78.70;;;-151.14;100.00;62537.16;4995742;28;19928;-83
2023/04/18 10:34:46;;;;;;;;;;;10.40;78.80;;;-151.14;100.00;62537.16;5011393;28;20106;-83
2023/04/18 10:37:14;;;;;;;;;;;10.40;78.60;;;-151.14;100.00;62537.16;5011948;28;19922;-83
2023/04/18 10:39:56;;;;;;;;;;;10.40;78.50;;;-151.14;100.00;62537.16;4995740;28;20217;-83
2023/04/18 10:42:58;;;;;;;;;;;10.40;78.50;;;-151.14;100.00;62537.16;5011947;28;19921;-83
2023/04/18 10:45:27;;;;;;;;;;;10.40;78.50;;;-151.14;100.00;62537.16;5012431;28;19937;-83
2023/04/18 10:48:21;;;;;;;;;;;10.40;78.70;;;-151.14;100.00;62537.16;4995544;28;19928;-83
2023/04/18 10:51:12;;;;;;;;;;;10.50;78.90;;;-151.14;100.00;62537.16;4995638;28;19928;-82
2023/04/18 10:53:41;;;;;;;;;;;10.50;78.70;;;-151.14;100.00;62537.16;4995419;28;19921;-83
2023/04/18 10:56:10;;;;;;;;;;;10.50;78.50;;;-151.14;100.00;62537.16;4994778;28;19921;-84
2023/04/18 10:58:38;;;;;;;;;;;10.50;78.80;;;-151.14;100.00;62537.16;5011816;28;19921;-83
2023/04/18 11:01:06;;;;;;;;;;;10.50;78.40;;;-151.14;100.00;62537.16;4995371;28;19928;-83
2023/04/18 11:03:34;;;;;;;;;;;10.50;78.70;;;-151.14;100.00;62537.16;4995308;28;19928;-83
2023/04/18 11:06:03;;;;;;;;;;;10.50;78.80;;;-151.14;100.00;62537.16;4978410;28;19928;-83